METAR Data
IDs: Format: Raw Decoded Include TAF

Data at: 2105 UTC 18 Sep 2018

KPRX 182056Z AUTO 24010KT 9SM CLR 36/21 A2992 RMK AO2 SLP135 T03560206 56022
KPRX 181956Z AUTO 19008KT 10SM CLR 36/21 A2994 RMK AO2 SLP141 T03560206
KPRX 181856Z AUTO 24007KT 10SM CLR 34/21 A2996 RMK AO2 SLP147 T03440206
KPRX 181756Z AUTO 22008KT 10SM FEW050 34/22 A2999 RMK AO2 SLP157 T03440217 10344 20228 58012
KPRX 181656Z AUTO 20007KT 10SM CLR 33/21 A3001 RMK AO2 SLP164 T03280211
KPRX 181556Z AUTO 19006KT 10SM CLR 33/23 A3002 RMK AO2 SLP169 T03280228
KPRX 181456Z AUTO VRB03KT 10SM CLR 31/24 A3002 RMK AO2 SLP170 T03060239 51006
KPRX 181356Z AUTO 09003KT 10SM CLR 26/24 A3002 RMK AO2 SLP171 T02610239
KPRX 181256Z AUTO 08004KT 6SM BR CLR 23/23 A3001 RMK AO2 SLP169 T02330228
KPRX 181156Z AUTO 00000KT 8SM CLR 23/22 A3000 RMK AO2 SLP165 T02280222 10256 20228 53007
KPRX 181056Z AUTO 14004KT 10SM CLR 23/22 A3000 RMK AO2 SLP162 T02280222
KPRX 180956Z AUTO 00000KT 10SM CLR 23/23 A2998 RMK AO2 SLP157 T02330228
KPRX 180856Z AUTO 00000KT 10SM CLR 24/23 A2998 RMK AO2 SLP155 T02390228 56001
KPRX 180756Z AUTO 14003KT 10SM CLR 24/23 A2998 RMK AO2 SLP156 T02390228
KPRX 180656Z AUTO 00000KT 10SM CLR 25/23 A2998 RMK AO2 SLP155 T02500228
KPRX 180556Z AUTO 00000KT 10SM CLR 24/23 A2998 RMK AO2 SLP157 T02440228 10306 20244 403560217 50005
KPRX 180456Z AUTO 18003KT 10SM CLR 26/23 A2999 RMK AO2 SLP157 T02560228
KPRX 180356Z AUTO 00000KT 10SM CLR 26/23 A2998 RMK AO2 SLP156 T02560233 TSNO
KPRX 180256Z AUTO 16003KT 10SM CLR 27/23 A2997 RMK AO2 SLP153 T02670233 53013 TSNO
KPRX 180156Z AUTO 07004KT 10SM CLR 27/23 A2995 RMK AO2 SLP148 T02670233
KPRX 180056Z AUTO 00000KT 10SM CLR 29/23 A2993 RMK AO2 TSE12 SLP140 T02890228
KPRX 180018Z AUTO 22004KT 10SM CLR 30/23 A2993 RMK AO2 TSE12
KPRX 172356Z AUTO 23005KT 10SM VCTS CLR 31/23 A2993 RMK AO2 LTG DSNT E TSB42 SLP140 T03060228 10356 20306 55001
KPRX 172348Z AUTO 25005KT 10SM VCTS CLR 31/23 A2993 RMK AO2 TSB42
KPRX 172256Z AUTO 28008KT 10SM CLR 31/22 A2993 RMK AO2 SLP139 T03110222
KPRX 172156Z AUTO 19010KT 10SM FEW060 34/21 A2992 RMK AO2 SLP136 T03440211
KPRX 172056Z AUTO 19005KT 10SM CLR 34/21 A2993 RMK AO2 LTG DSNT W SLP140 T03440206 56020
KPRX 171956Z AUTO 19008KT 10SM CLR 35/21 A2994 RMK AO2 LTG DSNT SW SLP143 T03500211
KPRX 171856Z AUTO VRB05KT 10SM FEW050 33/21 A2997 RMK AO2 SLP153 T03330211
KPRX 171756Z AUTO 24007KT 10SM FEW050 33/21 A2999 RMK AO2 SLP161 T03330211 10339 20222 58007
KPRX 171656Z AUTO 20005KT 10SM CLR 33/22 A3001 RMK AO2 SLP167 T03330217
KPRX 171556Z AUTO 21005KT 10SM CLR 32/21 A3002 RMK AO2 SLP169 T03220206
KPRX 171456Z AUTO 20004KT 10SM FEW050 29/22 A3001 RMK AO2 SLP168 T02940217 53015
KPRX 171356Z AUTO 11003KT 10SM CLR 26/22 A3000 RMK AO2 SLP163 T02610217
KPRX 171256Z AUTO 16003KT 10SM CLR 24/22 A2999 RMK AO2 SLP159 T02440217
KPRX 171156Z AUTO 00000KT 10SM CLR 22/21 A2997 RMK AO2 SLP154 T02220206 10250 20217 53009
KPRX 171056Z AUTO 00000KT 10SM CLR 22/20 A2995 RMK AO2 SLP148 T02220200
KPRX 170956Z AUTO 00000KT 10SM CLR 23/21 A2995 RMK AO2 SLP145 T02280206